メインページ
METAR-TAF:

METAR-TAF

空港 :

ハマド国際空港

ドーハ, カタール

緯度: 25-16-23N, 経度: 51-36-29E, 海抜: 4m

現時点の気象観測

当レポートは53分前の22:00(UTC)に作成
北/北西の風 14kt
気温 21°C
湿度 69%
気圧 1022 hPa
視程10km以上
1,500メートル以下は雲なし、積乱雲なし

METAR: OTHH 152200Z AUTO 34014KT CAVOK 21/15 Q1022 NOSIG

時間: 01:53 (22:53 UTC)

予報

当レポートは5時間31分前の17:22(UTC)に作成
予報は15日の 18時(UTC)から 16日の 24時(UTC)まで有効
北西の風 10kt
視程: 9000m
16日の 08時(UTC)から 16日の 10時(UTC)まで徐々に
北/北東の風 12kt
16日の 15時(UTC)から 16日の 17時(UTC)まで徐々に
北/北西の風 9kt

TAF: OTHH 151722Z 1518/1624 32010KT 9000 NSC BECMG 1608/1610 03012KT BECMG 1615/1617 33009KT

4,000以上の空港の気象観測と天気予報(METAR報とTAF報)

利用可能な観測所は地図上に黄色い丸と赤い丸で示す。

丸の上にカーソルを重ねると観測所名を参照できる。

次にクリックすると気象観測と天気予報を参照できる。

マップの切り替え:黒色「×」印の緑ボタンをクリックして拡大、「-」印の緑ボタンをクリックして縮小、緑色の三角印をクリックして隣りの地図に切り替え


METAR-TAF: